Thursday, October 19, 2017, 7:09 AM EDT
Back to Local

KSHD, Staunton / Shenandoah

Location: Weyers Cave, VA, United States Lat: 38.267
Local Time: 7:09 AM EDT (11:09 GMT) Lon: -78.9
Time Zone: US/Eastern Elev: 1200 ft

Show me the last for .
Show Coded

Time T Td Feel RH Dir Speed Gust Alt SLP Vis Weather Sky Remarks
2017-10-19 06:35 36 35 - 97 - Calm - 30.29 - 10 CLR None
2017-10-19 06:15 34 33 29 97 220° 5 - 30.29 - 10 CLR None
2017-10-19 05:55 34 32 - 91 - Calm - 30.30 - 10 CLR None
2017-10-19 05:35 37 35 - 94 - Calm - 30.30 - 10 CLR None
2017-10-19 05:15 38 36 - 92 - Calm - 30.29 - 10 CLR None
2017-10-19 04:55 37 35 - 91 - Calm - 30.29 - 10 CLR None
2017-10-19 04:35 38 36 - 91 - Calm - 30.29 - 10 CLR None
2017-10-19 04:15 38 37 - 95 - Calm - 30.29 - 10 CLR None
2017-10-19 03:55 38 35 - 91 - Calm - 30.29 - 10 CLR None
2017-10-19 03:35 37 35 - 94 - Calm - 30.30 - 10 CLR None
2017-10-19 03:15 38 37 36 94 200° 3 - 30.30 - 10 CLR None
2017-10-19 02:55 38 36 36 91 260° 3 - 30.30 - 10 CLR None
2017-10-19 02:35 40 37 - 89 - Calm - 30.30 - 10 CLR None
2017-10-19 02:15 40 38 - 91 - Calm - 30.31 - 10 CLR None
2017-10-19 01:55 38 36 - 91 - Calm - 30.31 - 10 CLR 6-hr Min Temp (2am): 38.3°F
6-hr Max Temp (2am): 53.1°F
24-hr Min Temp (2am): 29.3°F
24-hr Max Temp (2am): 68.5°F
2017-10-19 01:35 40 37 - 88 - Calm - 30.31 - 10 CLR None
2017-10-19 01:15 41 37 - 87 - Calm - 30.31 - 10 CLR None
2017-10-19 00:55 42 38 40 85 170° 3 - 30.31 - 10 CLR None
2017-10-19 00:35 43 38 - 83 - Calm - 30.33 - 10 CLR None
2017-10-19 00:15 43 38 - 83 - Calm - 30.33 - 10 CLR None
2017-10-18 23:55 42 37 - 82 - Calm - 30.34 - 10 CLR None
2017-10-18 23:35 43 38 - 82 - Calm - 30.34 - 10 CLR None
2017-10-18 23:15 44 38 - 81 - Calm - 30.34 - 10 CLR None
2017-10-18 22:55 46 38 - 76 - Calm - 30.34 - 10 CLR None
2017-10-18 22:35 47 39 - 74 - Calm - 30.34 - 10 CLR None
2017-10-18 22:15 44 39 - 80 - Calm - 30.34 - 10 CLR None
2017-10-18 21:55 44 38 - 81 - Calm - 30.34 - 10 CLR None
2017-10-18 21:35 48 39 - 70 - Calm - 30.33 - 10 CLR None
2017-10-18 21:15 50 40 - 68 - Calm - 30.32 - 10 CLR None
2017-10-18 20:55 49 40 48 69 210° 3 - 30.32 - 10 CLR None
2017-10-18 20:35 49 40 - 70 - Calm - 30.33 - 10 CLR None
2017-10-18 20:15 51 40 - 65 - Calm - 30.33 - 10 CLR None
2017-10-18 19:55 53 40 - 60 - Calm - 30.33 - 10 CLR 6-hr Min Temp (8pm): 53.2°F
6-hr Max Temp (8pm): 68.5°F
2017-10-18 19:35 55 40 - 58 200° 5 - 30.32 - 10 CLR None
2017-10-18 19:15 58 40 - 51 200° 3 - 30.33 - 10 CLR None
2017-10-18 18:55 59 40 - 49 180° 3 - 30.32 - 10 CLR None
2017-10-18 18:35 61 40 - 47 180° 3 - 30.32 - 10 CLR None
2017-10-18 18:15 63 40 - 43 170° 3 - 30.32 - 10 CLR None
2017-10-18 17:55 65 40 - 39 180° 6 - 30.31 - 10 CLR None
2017-10-18 17:35 66 39 - 36 170° 6 - 30.32 - 10 CLR None
2017-10-18 17:15 67 39 - 35 210° 6 - 30.32 - 10 CLR None
2017-10-18 16:55 67 39 - 35 140° 5 - 30.32 - 10 CLR None
2017-10-18 16:35 68 38 - 33 180° 6 - 30.32 - 10 CLR None
2017-10-18 16:15 68 37 - 31 160° 7 - 30.33 - 10 CLR None
2017-10-18 15:55 68 35 - 29 190° 6 - 30.33 - 10 CLR None
2017-10-18 15:35 68 35 - 29 240° 3 - 30.34 - 10 CLR None
2017-10-18 15:15 68 35 - 30 200° 8 - 30.34 - 10 CLR None
2017-10-18 14:55 67 36 - 31 220° 7 - 30.35 - 10 CLR None
2017-10-18 14:35 67 37 - 32 230° 7 - 30.35 - 10 CLR None
2017-10-18 14:15 67 37 - 33 180° 7 - 30.35 - 10 CLR None
2017-10-18 13:55 67 38 - 34 180° 7 - 30.37 - 10 CLR 6-hr Min Temp (2pm): 29.7°F
6-hr Max Temp (2pm): 66.7°F
2017-10-18 13:35 65 39 - 38 280° 5 - 30.37 - 10 CLR None
2017-10-18 13:15 63 39 - 40 130° 5 - 30.39 - 10 CLR None
2017-10-18 12:55 64 39 - 40 190° 3 - 30.40 - 10 CLR None
2017-10-18 12:35 62 40 - 44 200° 3 - 30.41 - 10 CLR None
2017-10-18 12:15 60 40 - 46 - Calm - 30.42 - 10 CLR None
2017-10-18 11:55 59 40 - 50 - Calm - 30.43 - 10 CLR None
2017-10-18 11:35 56 40 - 54 - Calm - 30.43 - 10 CLR None
2017-10-18 11:15 53 40 - 60 - Calm - 30.43 - 10 CLR None
2017-10-18 10:55 50 40 - 67 - Calm - 30.43 - 10 CLR None
2017-10-18 10:35 48 40 - 71 - Calm - 30.43 - 10 CLR None
2017-10-18 10:15 46 39 - 76 - Calm - 30.44 - 10 CLR None
2017-10-18 09:55 43 38 - 81 - Calm - 30.43 - 10 CLR None
2017-10-18 09:35 41 38 - 89 - Calm - 30.43 - 10 CLR None
2017-10-18 09:15 38 36 - 91 - Calm - 30.43 - 10 CLR None
2017-10-18 08:55 36 35 - 94 - Calm - 30.43 - 10 CLR None
2017-10-18 08:35 33 32 - 95 - Calm - 30.41 - 10 CLR None
2017-10-18 08:15 32 31 - 95 - Calm - 30.41 - 10 CLR None
2017-10-18 07:55 30 28 - 94 - Calm - 30.40 - 10 CLR 6-hr Min Temp (8am): 29.3°F
6-hr Max Temp (8am): 34.9°F
2017-10-18 07:35 31 29 - 93 - Calm - 30.40 - 10 CLR None
2017-10-18 07:15 31 30 - 95 - Calm - 30.39 - 10 CLR None

Support USWX by starting your Amazon purchase here.